Time;durP1;ratioP1;P1;durP2;ratioP2;P2;SDS_P1;SDS_P2;PMS_P1;PMS_P2;Temp;Humidity;BMP_temperature;BMP_pressure;BME280_temperature;BME280_humidity;BME280_pressure;Samples;Min_cycle;Max_cycle;Signal;HPM_P1;HPM_P2
2022/11/30 00:02:15;;;;;;;42.77;25.27;;;7.40;99.90;;;;;;5078944;28;20024;-60
2022/11/30 00:04:41;;;;;;;36.37;23.40;;;7.30;99.90;;;;;;5087142;28;20062;-61
2022/11/30 00:07:07;;;;;;;43.35;24.15;;;7.40;99.90;;;;;;5052714;28;20053;-60
2022/11/30 00:09:32;;;;;;;38.50;23.77;;;7.30;99.90;;;;;;5049960;28;20041;-59
2022/11/30 00:11:58;;;;;;;40.43;24.43;;;7.40;99.90;;;;;;5049556;28;20056;-60
2022/11/30 00:14:23;;;;;;;42.07;25.10;;;7.30;99.90;;;;;;5048464;28;20033;-60
2022/11/30 00:16:49;;;;;;;42.07;24.80;;;7.30;99.90;;;;;;5059081;28;20059;-61
2022/11/30 00:19:14;;;;;;;41.07;24.97;;;7.40;99.90;;;;;;5069420;28;20425;-60
2022/11/30 00:21:40;;;;;;;41.37;24.33;;;7.30;99.90;;;;;;5069017;28;20413;-61
2022/11/30 00:24:06;;;;;;;42.30;24.83;;;7.30;99.90;;;;;;5068710;28;20537;-61
2022/11/30 00:26:31;;;;;;;45.58;24.98;;;7.30;99.90;;;;;;5066322;28;20173;-60
2022/11/30 00:28:57;;;;;;;42.33;25.00;;;7.30;99.90;;;;;;5057916;28;20124;-60
2022/11/30 00:31:23;;;;;;;43.30;25.27;;;7.30;99.90;;;;;;5054843;28;20044;-60
2022/11/30 00:33:49;;;;;;;42.75;26.17;;;7.30;99.90;;;;;;5055243;28;20048;-60
2022/11/30 00:36:17;;;;;;;45.87;27.83;;;7.30;99.90;;;;;;5052457;28;20040;-58
2022/11/30 00:38:44;;;;;;;42.63;25.48;;;7.30;99.90;;;;;;5065918;28;20041;-61
2022/11/30 00:41:10;;;;;;;39.75;26.23;;;7.30;99.90;;;;;;5066093;28;20377;-59
2022/11/30 00:43:36;;;;;;;42.85;26.13;;;7.30;99.90;;;;;;5055099;28;20061;-59
2022/11/30 00:46:02;;;;;;;44.03;27.08;;;7.30;99.90;;;;;;5069501;28;20067;-58
2022/11/30 00:48:28;;;;;;;46.47;27.13;;;7.30;99.90;;;;;;5069010;28;20071;-59
2022/11/30 00:50:53;;;;;;;43.83;26.60;;;7.30;99.90;;;;;;5069124;28;20040;-59
2022/11/30 00:53:19;;;;;;;45.93;28.10;;;7.30;99.90;;;;;;5068234;28;20037;-60
2022/11/30 00:55:45;;;;;;;45.63;28.75;;;7.30;99.90;;;;;;5067923;28;20052;-61
2022/11/30 00:58:11;;;;;;;44.38;25.73;;;7.20;99.90;;;;;;5064549;28;20053;-61
2022/11/30 01:00:37;;;;;;;47.15;27.80;;;7.30;99.90;;;;;;5049027;28;20044;-60
2022/11/30 01:03:03;;;;;;;45.53;27.83;;;7.30;99.90;;;;;;5049224;28;20035;-61
2022/11/30 01:05:29;;;;;;;43.47;25.77;;;7.20;99.90;;;;;;5048348;28;20028;-60
2022/11/30 01:07:58;;;;;;;46.33;26.25;;;7.30;99.90;;;;;;5049413;28;20430;-58
2022/11/30 01:10:23;;;;;;;52.25;28.88;;;7.20;99.90;;;;;;5051674;28;20045;-59
2022/11/30 01:12:49;;;;;;;47.07;27.50;;;7.30;99.90;;;;;;5052514;28;20077;-58
2022/11/30 01:15:14;;;;;;;47.53;27.63;;;7.30;99.90;;;;;;5051710;28;20033;-59
2022/11/30 01:17:40;;;;;;;47.57;28.40;;;7.20;99.90;;;;;;5052680;28;20041;-62
2022/11/30 01:20:07;;;;;;;42.07;25.70;;;7.20;99.90;;;;;;5053782;28;20048;-61
2022/11/30 01:22:34;;;;;;;44.45;27.48;;;7.20;99.90;;;;;;5052969;28;20044;-60
2022/11/30 01:24:59;;;;;;;;;;;7.20;99.90;;;;;;5051721;28;20106;-60
2022/11/30 01:27:25;;;;;;;44.08;25.80;;;7.20;99.90;;;;;;5052535;28;20382;-59
2022/11/30 01:29:50;;;;;;;48.57;28.83;;;7.20;99.90;;;;;;5056793;28;20036;-58
2022/11/30 01:32:16;;;;;;;51.43;28.57;;;7.20;99.90;;;;;;5071011;28;20036;-61
2022/11/30 01:34:41;;;;;;;50.33;29.47;;;7.10;99.90;;;;;;5069403;28;20095;-60
2022/11/30 01:37:07;;;;;;;44.60;27.07;;;7.10;99.90;;;;;;5066704;28;20393;-59
2022/11/30 01:39:32;;;;;;;44.73;26.13;;;7.10;99.90;;;;;;5072404;28;20037;-61
2022/11/30 01:41:58;;;;;;;46.77;27.80;;;7.10;99.90;;;;;;5067025;28;20032;-60
2022/11/30 01:44:25;;;;;;;52.30;28.47;;;7.00;99.90;;;;;;5064817;28;20033;-60
2022/11/30 01:47:08;;;;;;;49.03;27.20;;;7.10;99.90;;;;;;5052828;28;20044;-61
2022/11/30 01:49:44;;;;;;;47.60;26.73;;;7.00;99.90;;;;;;5052234;28;20148;-60
2022/11/30 01:52:30;;;;;;;43.50;25.25;;;7.00;99.90;;;;;;5057484;28;20187;-60
2022/11/30 01:55:01;;;;;;;44.13;26.67;;;6.90;99.90;;;;;;5055624;28;20248;-61
2022/11/30 01:57:34;;;;;;;40.53;24.17;;;6.90;99.90;;;;;;5058995;28;20093;-61
2022/11/30 02:00:02;;;;;;;45.97;25.98;;;6.80;99.90;;;;;;5054782;28;20506;-60
2022/11/30 02:02:54;;;;;;;43.55;24.73;;;6.80;99.90;;;;;;5061986;28;20094;-61
2022/11/30 02:05:20;;;;;;;44.08;25.65;;;6.80;99.90;;;;;;5071237;28;20552;-61
2022/11/30 02:07:46;;;;;;;45.25;25.52;;;6.70;99.90;;;;;;5072060;28;20117;-60
2022/11/30 02:10:17;;;;;;;44.20;25.80;;;6.70;99.90;;;;;;5071796;28;20044;-61
2022/11/30 02:13:06;;;;;;;52.67;26.92;;;6.70;99.90;;;;;;5062655;28;20082;-60
2022/11/30 02:15:48;;;;;;;51.90;28.30;;;6.70;99.90;;;;;;5051448;28;20041;-59
2022/11/30 02:18:22;;;;;;;47.42;26.80;;;6.70;99.90;;;;;;5051421;28;20051;-60
2022/11/30 02:21:04;;;;;;;52.03;29.63;;;6.70;99.90;;;;;;5076578;28;20041;-61
2022/11/30 02:23:53;;;;;;;52.33;28.60;;;6.70;99.90;;;;;;5062194;28;20425;-62
2022/11/30 02:26:48;;;;;;;55.95;30.65;;;6.70;99.90;;;;;;5071102;28;20145;-60
2022/11/30 02:29:29;;;;;;;57.40;30.85;;;6.70;99.90;;;;;;5029868;28;20048;-62
2022/11/30 02:32:02;;;;;;;53.45;30.38;;;6.80;99.90;;;;;;5070284;28;20516;-61
2022/11/30 02:34:31;;;;;;;55.03;29.17;;;6.80;99.90;;;;;;5068190;28;20105;-60
2022/11/30 02:36:59;;;;;;;59.78;31.60;;;6.80;99.90;;;;;;5070881;28;20417;-61
2022/11/30 02:39:24;;;;;;;62.63;32.38;;;6.80;99.90;;;;;;5071813;28;20052;-61
2022/11/30 02:41:50;;;;;;;60.70;31.35;;;6.80;99.90;;;;;;5071020;28;20036;-61
2022/11/30 02:44:16;;;;;;;61.13;31.93;;;6.90;99.90;;;;;;5061793;28;20029;-61
2022/11/30 02:46:57;;;;;;;50.38;30.70;;;6.90;99.90;;;;;;5050886;28;20040;-61
2022/11/30 02:49:27;;;;;;;57.40;32.50;;;6.80;99.90;;;;;;5051615;28;20045;-60
2022/11/30 02:51:55;;;;;;;56.88;33.35;;;6.90;99.90;;;;;;5051859;28;20048;-58
2022/11/30 02:54:21;;;;;;;57.90;30.33;;;6.80;99.90;;;;;;5055037;28;20040;-61
2022/11/30 02:56:46;;;;;;;59.78;32.38;;;6.90;99.90;;;;;;5069820;28;20044;-61
2022/11/30 02:59:12;;;;;;;58.53;31.80;;;6.90;99.90;;;;;;5071202;28;20305;-58
2022/11/30 03:01:38;;;;;;;58.60;32.50;;;6.90;99.90;;;;;;5071303;28;20036;-59
2022/11/30 03:04:04;;;;;;;;;;;6.90;99.90;;;;;;5069434;28;20042;-62
2022/11/30 03:06:29;;;;;;;58.92;32.90;;;6.90;99.90;;;;;;5068621;28;20354;-59
2022/11/30 03:08:55;;;;;;;54.70;31.33;;;6.90;99.90;;;;;;5069354;28;20042;-62
2022/11/30 03:11:20;;;;;;;61.10;33.60;;;6.90;99.90;;;;;;5070161;28;20047;-59
2022/11/30 03:13:46;;;;;;;62.33;34.50;;;6.90;99.90;;;;;;5067748;28;20098;-58
2022/11/30 03:16:12;;;;;;;55.07;32.67;;;6.90;99.90;;;;;;5068177;28;20124;-61
2022/11/30 03:18:39;;;;;;;65.65;34.88;;;6.90;99.90;;;;;;5067888;28;20041;-61
2022/11/30 03:21:05;;;;;;;;;;;6.90;99.90;;;;;;5070965;28;20040;-60
2022/11/30 03:23:31;;;;;;;58.17;33.42;;;6.90;99.90;;;;;;5069328;28;19967;-60
2022/11/30 03:25:57;;;;;;;67.05;33.53;;;6.90;99.90;;;;;;5051656;28;20175;-61
2022/11/30 03:28:23;;;;;;;;;;;6.90;99.90;;;;;;5050990;28;20040;-61
2022/11/30 03:30:49;;;;;;;58.20;31.95;;;6.90;99.90;;;;;;5050313;28;19923;-58
2022/11/30 03:33:16;;;;;;;61.33;33.58;;;6.90;99.90;;;;;;5047925;28;20037;-60
2022/11/30 03:35:42;;;;;;;62.15;33.38;;;6.90;99.90;;;;;;5062401;28;20048;-59
2022/11/30 03:38:08;;;;;;;61.65;33.63;;;6.90;99.90;;;;;;5068290;28;20046;-59
2022/11/30 03:40:36;;;;;;;64.03;34.03;;;6.90;99.90;;;;;;5069927;28;20490;-59
2022/11/30 03:43:01;;;;;;;62.15;34.40;;;6.90;99.90;;;;;;5068842;28;20460;-61
2022/11/30 03:45:27;;;;;;;67.70;36.87;;;6.90;99.90;;;;;;5067529;28;20036;-58
2022/11/30 03:47:53;;;;;;;64.93;36.40;;;6.90;99.90;;;;;;5069433;28;20287;-60
2022/11/30 03:50:18;;;;;;;57.00;33.60;;;6.90;99.90;;;;;;5070037;28;20066;-59
2022/11/30 03:52:44;;;;;;;63.30;34.80;;;6.90;99.90;;;;;;5069514;28;20059;-62
2022/11/30 03:55:10;;;;;;;63.97;34.27;;;6.90;99.90;;;;;;5068394;28;20045;-61
2022/11/30 03:57:35;;;;;;;63.97;34.97;;;6.90;99.90;;;;;;5050885;28;20073;-60
2022/11/30 04:00:01;;;;;;;53.30;32.30;;;7.00;99.90;;;;;;5050034;28;20115;-59
2022/11/30 04:02:27;;;;;;;56.03;32.20;;;6.90;99.90;;;;;;5049358;28;20048;-60
2022/11/30 04:04:52;;;;;;;61.97;34.77;;;6.90;99.90;;;;;;5060642;28;20037;-61
2022/11/30 04:07:18;;;;;;;55.03;32.97;;;7.00;99.90;;;;;;5063383;28;20029;-61
2022/11/30 04:09:44;;;;;;;57.63;34.17;;;7.00;99.90;;;;;;5052005;28;20052;-61
2022/11/30 04:12:09;;;;;;;63.33;35.27;;;7.00;99.90;;;;;;5057344;28;20283;-60
2022/11/30 04:14:35;;;;;;;64.10;35.70;;;7.00;99.90;;;;;;5048361;28;20048;-59
2022/11/30 04:17:00;;;;;;;61.67;35.40;;;7.00;99.90;;;;;;5055382;28;20040;-61
2022/11/30 04:19:26;;;;;;;59.37;34.00;;;7.00;99.90;;;;;;5069660;28;20040;-59
2022/11/30 04:21:51;;;;;;;60.83;34.13;;;7.00;99.90;;;;;;5069821;28;20036;-60
2022/11/30 04:24:17;;;;;;;54.27;31.53;;;7.00;99.90;;;;;;5067986;28;20041;-61
2022/11/30 04:26:44;;;;;;;53.53;29.77;;;7.00;99.90;;;;;;5069816;28;20035;-61
2022/11/30 04:29:10;;;;;;;55.55;32.08;;;7.00;99.90;;;;;;5069455;28;20405;-59
2022/11/30 04:31:35;;;;;;;51.53;29.87;;;7.00;99.90;;;;;;5054107;28;20037;-61
2022/11/30 04:34:01;;;;;;;56.60;34.03;;;7.00;99.90;;;;;;5048524;28;20509;-61
2022/11/30 04:36:27;;;;;;;49.53;30.23;;;6.90;99.90;;;;;;5047796;28;20490;-60
2022/11/30 04:38:52;;;;;;;52.30;31.00;;;7.00;99.90;;;;;;5049518;28;20402;-60
2022/11/30 04:41:18;;;;;;;56.67;30.93;;;7.00;99.90;;;;;;5050656;28;20047;-60
2022/11/30 04:43:43;;;;;;;57.20;30.43;;;7.00;99.90;;;;;;5048482;28;20037;-60
2022/11/30 04:46:09;;;;;;;49.40;30.57;;;6.90;99.90;;;;;;5052751;28;20036;-59
2022/11/30 04:48:35;;;;;;;45.73;28.13;;;7.00;99.90;;;;;;5053577;28;20045;-58
2022/11/30 04:51:06;;;;;;;43.55;26.75;;;7.00;99.90;;;;;;5054106;28;20287;-60
2022/11/30 04:53:36;;;;;;;39.97;24.90;;;6.90;99.90;;;;;;5052732;28;20068;-60
2022/11/30 04:56:06;;;;;;;41.97;27.05;;;6.90;99.90;;;;;;5052949;28;20115;-60
2022/11/30 04:58:32;;;;;;;40.25;25.92;;;6.90;99.90;;;;;;5052461;28;20149;-61
2022/11/30 05:00:58;;;;;;;41.73;26.20;;;6.90;99.90;;;;;;5053012;28;20041;-59
2022/11/30 05:03:23;;;;;;;39.95;25.13;;;6.90;99.90;;;;;;5053182;28;20045;-59
2022/11/30 05:05:49;;;;;;;40.90;25.37;;;6.90;99.90;;;;;;5052617;28;20051;-59
2022/11/30 05:08:15;;;;;;;40.77;24.63;;;6.90;99.90;;;;;;5053075;28;20037;-61
2022/11/30 05:10:41;;;;;;;41.30;24.67;;;6.90;99.90;;;;;;5051940;28;20037;-59
2022/11/30 05:13:06;;;;;;;44.00;26.27;;;6.90;99.90;;;;;;5052796;28;20387;-61
2022/11/30 05:15:32;;;;;;;40.83;23.73;;;6.90;99.90;;;;;;5062592;28;20109;-61
2022/11/30 05:17:59;;;;;;;36.28;24.15;;;6.90;99.90;;;;;;5052832;28;20082;-58
2022/11/30 05:20:25;;;;;;;43.50;26.33;;;6.90;99.90;;;;;;5052938;28;20036;-60
2022/11/30 05:22:50;;;;;;;43.25;26.75;;;6.90;99.90;;;;;;5052192;28;20059;-60
2022/11/30 05:25:16;;;;;;;44.20;26.10;;;6.90;99.90;;;;;;5053168;28;20183;-60
2022/11/30 05:27:41;;;;;;;47.30;26.37;;;6.80;99.90;;;;;;5052181;28;20090;-61
2022/11/30 05:30:07;;;;;;;46.60;26.33;;;6.90;99.90;;;;;;5052267;28;20115;-59
2022/11/30 05:32:33;;;;;;;44.47;26.10;;;6.80;99.90;;;;;;5053571;28;20052;-61
2022/11/30 05:34:59;;;;;;;43.65;26.42;;;6.80;99.90;;;;;;5062897;28;20459;-59
2022/11/30 05:37:24;;;;;;;43.97;26.77;;;6.80;99.90;;;;;;5054436;28;20029;-59
2022/11/30 05:39:50;;;;;;;46.50;28.57;;;6.80;99.90;;;;;;5052240;28;20032;-60
2022/11/30 05:42:15;;;;;;;44.67;27.10;;;6.80;99.90;;;;;;5066096;28;20081;-59
2022/11/30 05:44:41;;;;;;;43.00;25.37;;;6.80;99.90;;;;;;5064420;28;20040;-59
2022/11/30 05:47:07;;;;;;;46.90;26.75;;;6.80;99.90;;;;;;5052533;28;20047;-59
2022/11/30 05:49:33;;;;;;;52.58;30.67;;;6.80;99.90;;;;;;5052320;28;20041;-58
2022/11/30 05:51:58;;;;;;;50.10;28.17;;;6.80;99.90;;;;;;5052279;28;20044;-59
2022/11/30 05:54:24;;;;;;;48.00;28.07;;;6.80;99.90;;;;;;5050561;28;20055;-59
2022/11/30 05:56:49;;;;;;;47.47;28.03;;;6.80;99.90;;;;;;5070903;28;20490;-61
2022/11/30 05:59:15;;;;;;;49.03;30.13;;;6.70;99.90;;;;;;5069541;28;20036;-61
2022/11/30 06:01:40;;;;;;;45.03;26.50;;;6.80;99.90;;;;;;5072295;28;20041;-59
2022/11/30 06:04:06;;;;;;;44.03;26.27;;;6.70;99.90;;;;;;5070772;28;20064;-61
2022/11/30 06:06:32;;;;;;;41.33;25.73;;;6.70;99.90;;;;;;5069850;28;20032;-61
2022/11/30 06:08:57;;;;;;;39.70;24.60;;;6.70;99.90;;;;;;5071538;28;20072;-61
2022/11/30 06:11:23;;;;;;;42.03;24.27;;;6.70;99.90;;;;;;5071790;28;20275;-58
2022/11/30 06:13:49;;;;;;;41.47;25.25;;;6.70;99.90;;;;;;5070414;28;20358;-60
2022/11/30 06:16:14;;;;;;;38.53;23.17;;;6.70;99.90;;;;;;5064329;28;20509;-61
2022/11/30 06:18:40;;;;;;;44.00;26.13;;;6.70;99.90;;;;;;5061503;28;20036;-61
2022/11/30 06:21:08;;;;;;;43.87;26.17;;;6.70;99.90;;;;;;5060870;28;20033;-60
2022/11/30 06:23:34;;;;;;;39.67;25.63;;;6.70;99.90;;;;;;5068681;28;20037;-61
2022/11/30 06:26:09;;;;;;;42.47;25.40;;;6.70;99.90;;;;;;5071256;28;20238;-62
2022/11/30 06:28:35;;;;;;;42.10;25.88;;;6.70;99.90;;;;;;5052494;28;20215;-61
2022/11/30 06:31:03;;;;;;;40.72;26.02;;;6.70;99.90;;;;;;5051527;28;20116;-59
2022/11/30 06:33:29;;;;;;;46.30;27.13;;;6.70;99.90;;;;;;5050655;28;20041;-61
2022/11/30 06:35:54;;;;;;;41.03;25.70;;;6.70;99.90;;;;;;5051146;28;20663;-60
2022/11/30 06:38:21;;;;;;;45.27;26.47;;;6.70;99.90;;;;;;5052815;28;20033;-61
2022/11/30 06:40:47;;;;;;;41.63;26.13;;;6.70;99.90;;;;;;5066238;28;20520;-60
2022/11/30 06:43:12;;;;;;;40.58;25.38;;;6.70;99.90;;;;;;5070301;28;20138;-61
2022/11/30 06:45:38;;;;;;;38.93;24.67;;;6.70;99.90;;;;;;5071307;28;20042;-61
2022/11/30 06:48:04;;;;;;;42.40;24.03;;;6.70;99.90;;;;;;5058010;28;20044;-61
2022/11/30 06:50:30;;;;;;;44.92;25.48;;;6.70;99.90;;;;;;5056530;28;20283;-59
2022/11/30 06:52:55;;;;;;;41.15;26.40;;;6.70;99.90;;;;;;5061821;28;20036;-62
2022/11/30 06:55:22;;;;;;;42.57;25.57;;;6.70;99.90;;;;;;5058024;28;20070;-60
2022/11/30 06:57:48;;;;;;;;;;;6.70;99.90;;;;;;5055281;28;20139;-61
2022/11/30 07:00:14;;;;;;;36.95;23.13;;;6.70;99.90;;;;;;5069303;28;19916;-61
2022/11/30 07:02:39;;;;;;;37.60;23.05;;;6.70;99.90;;;;;;5077749;28;20071;-61
2022/11/30 07:05:05;;;;;;;35.20;23.93;;;6.70;99.90;;;;;;5048006;28;20037;-61
2022/11/30 07:07:31;;;;;;;35.80;24.65;;;6.70;99.90;;;;;;5050568;28;20102;-61
2022/11/30 07:09:57;;;;;;;35.92;23.42;;;6.70;99.90;;;;;;5060763;28;20123;-62
2022/11/30 07:12:23;;;;;;;38.30;23.55;;;6.70;99.90;;;;;;5070852;28;20036;-62
2022/11/30 07:14:55;;;;;;;37.63;24.08;;;6.60;99.90;;;;;;5068597;28;20051;-60
2022/11/30 07:17:21;;;;;;;34.03;22.70;;;6.70;99.90;;;;;;5068518;28;20043;-61
2022/11/30 07:19:46;;;;;;;35.17;22.67;;;6.70;99.90;;;;;;5069790;28;20513;-59
2022/11/30 07:22:12;;;;;;;36.47;22.50;;;6.70;99.90;;;;;;5070525;28;20312;-60
2022/11/30 07:27:22;;;;;;;32.70;20.65;;;6.70;99.90;;;;;;5061669;28;20044;-59
2022/11/30 07:29:50;;;;;;;33.20;21.77;;;6.70;99.90;;;;;;5064238;28;20387;-58
2022/11/30 07:32:16;;;;;;;27.90;18.50;;;6.60;99.90;;;;;;5057089;28;20456;-61
2022/11/30 07:34:41;;;;;;;35.10;20.95;;;6.60;99.90;;;;;;5060585;28;20033;-61
2022/11/30 07:37:07;;;;;;;29.97;20.83;;;6.60;99.90;;;;;;5049308;28;20075;-59
2022/11/30 07:39:32;;;;;;;33.97;20.90;;;6.60;99.90;;;;;;5055553;28;20057;-61
2022/11/30 07:41:58;;;;;;;32.43;19.50;;;6.60;99.90;;;;;;5048593;28;20048;-60
2022/11/30 07:44:23;;;;;;;33.03;19.47;;;6.60;99.90;;;;;;5056126;28;20075;-59
2022/11/30 07:46:49;;;;;;;39.87;20.30;;;6.60;99.90;;;;;;5053695;28;20044;-62
2022/11/30 07:49:15;;;;;;;41.30;19.23;;;6.60;99.90;;;;;;5056221;28;20032;-61
2022/11/30 07:51:40;;;;;;;59.03;21.23;;;6.60;99.90;;;;;;5050242;28;20072;-61
2022/11/30 07:54:06;;;;;;;28.60;18.43;;;6.60;99.90;;;;;;5060326;28;20290;-59
2022/11/30 07:56:31;;;;;;;27.30;17.50;;;6.60;99.90;;;;;;5047301;28;20167;-61
2022/11/30 07:59:00;;;;;;;31.57;18.77;;;6.60;99.90;;;;;;5055978;28;20115;-59
2022/11/30 08:01:29;;;;;;;27.58;17.35;;;6.60;99.90;;;;;;5053285;28;20041;-60
2022/11/30 08:03:55;;;;;;;26.90;17.02;;;6.60;99.90;;;;;;5048830;28;20048;-59
2022/11/30 08:06:23;;;;;;;28.58;17.50;;;6.60;99.90;;;;;;5063538;28;20154;-61
2022/11/30 08:08:51;;;;;;;38.72;18.50;;;6.60;99.90;;;;;;5061926;28;20036;-60
2022/11/30 08:11:24;;;;;;;30.00;17.70;;;6.60;99.90;;;;;;5068199;28;20558;-59
2022/11/30 08:13:50;;;;;;;35.25;19.48;;;6.60;99.90;;;;;;5064340;28;20521;-61
2022/11/30 08:16:21;;;;;;;35.30;18.37;;;6.60;99.90;;;;;;5056737;28;20071;-58
2022/11/30 08:18:47;;;;;;;33.03;19.23;;;6.60;99.90;;;;;;5055335;28;20292;-60
2022/11/30 08:21:15;;;;;;;32.17;19.73;;;6.60;99.90;;;;;;5058070;28;20028;-58
2022/11/30 08:23:59;;;;;;;34.80;19.20;;;6.60;99.90;;;;;;5067037;28;20036;-60
2022/11/30 08:26:30;;;;;;;32.75;19.33;;;6.60;99.90;;;;;;5052356;28;20128;-59
2022/11/30 08:28:57;;;;;;;36.78;20.88;;;6.60;99.90;;;;;;5064391;28;20052;-62
2022/11/30 08:31:24;;;;;;;30.50;19.40;;;6.60;99.90;;;;;;5064250;28;20045;-61
2022/11/30 08:33:54;;;;;;;27.27;16.40;;;6.60;99.90;;;;;;5048750;28;20041;-60
2022/11/30 08:36:22;;;;;;;31.08;18.40;;;6.60;99.90;;;;;;5062227;28;20040;-60
2022/11/30 08:38:48;;;;;;;28.42;18.75;;;6.60;99.90;;;;;;5049880;28;20378;-61
2022/11/30 08:41:18;;;;;;;26.67;19.17;;;6.60;99.90;;;;;;5051130;28;20029;-62
2022/11/30 08:43:43;;;;;;;30.40;17.83;;;6.60;99.90;;;;;;5059545;28;20041;-63
2022/11/30 08:46:12;;;;;;;31.43;19.40;;;6.60;99.90;;;;;;5057674;28;20029;-60
2022/11/30 08:48:38;;;;;;;29.08;18.77;;;6.60;99.90;;;;;;5052566;28;20041;-59
2022/11/30 08:51:06;;;;;;;29.02;18.02;;;6.60;99.90;;;;;;5050613;28;20055;-61
2022/11/30 08:53:33;;;;;;;26.00;16.73;;;6.60;99.90;;;;;;5066443;28;20041;-61
2022/11/30 08:56:02;;;;;;;26.08;17.00;;;6.60;99.90;;;;;;5067332;28;20493;-62
2022/11/30 08:58:31;;;;;;;24.90;17.40;;;6.60;99.90;;;;;;5066692;28;20206;-62
2022/11/30 09:01:20;;;;;;;24.33;16.75;;;6.60;99.90;;;;;;5056251;28;20163;-61
2022/11/30 09:03:48;;;;;;;21.95;16.15;;;6.60;99.90;;;;;;5054528;28;20044;-60
2022/11/30 09:06:16;;;;;;;26.80;16.67;;;6.60;99.90;;;;;;5054216;28;20056;-61
2022/11/30 09:08:44;;;;;;;24.95;17.70;;;6.60;99.90;;;;;;5058606;28;20048;-61
2022/11/30 09:11:21;;;;;;;20.00;15.25;;;6.60;99.90;;;;;;5069612;28;20036;-61
2022/11/30 09:13:47;;;;;;;24.95;16.50;;;6.60;99.90;;;;;;5040166;28;20162;-60
2022/11/30 09:16:14;;;;;;;23.48;16.50;;;6.60;99.90;;;;;;5054365;28;20119;-60
2022/11/30 09:18:40;;;;;;;25.38;17.55;;;6.60;99.90;;;;;;5059892;28;20040;-60
2022/11/30 09:21:09;;;;;;;22.15;16.02;;;6.60;99.90;;;;;;5059273;28;20693;-61
2022/11/30 09:23:36;;;;;;;25.42;17.70;;;6.60;99.90;;;;;;5048856;28;20553;-60
2022/11/30 09:26:04;;;;;;;22.15;16.33;;;6.60;99.90;;;;;;5053153;28;20037;-60
2022/11/30 09:28:30;;;;;;;22.25;16.83;;;6.60;99.90;;;;;;5052347;28;20067;-60
2022/11/30 09:31:20;;;;;;;20.80;14.90;;;6.60;99.90;;;;;;5052174;28;20510;-59
2022/11/30 09:33:46;;;;;;;22.40;16.50;;;6.60;99.90;;;;;;5040079;28;20225;-60
2022/11/30 09:36:14;;;;;;;24.60;18.15;;;6.60;99.90;;;;;;5062197;28;20409;-60
2022/11/30 09:38:43;;;;;;;21.20;15.90;;;6.60;99.90;;;;;;5055446;28;20032;-59
2022/11/30 09:41:33;;;;;;;24.42;16.70;;;6.60;99.90;;;;;;5056717;28;20033;-60
2022/11/30 09:44:24;;;;;;;26.10;17.17;;;6.60;99.90;;;;;;5054383;28;20040;-59
2022/11/30 09:46:56;;;;;;;25.67;17.40;;;6.60;99.90;;;;;;5022545;28;20056;-59
2022/11/30 09:49:30;;;;;;;25.88;18.75;;;6.60;99.90;;;;;;5057346;28;20123;-58
2022/11/30 09:51:59;;;;;;;28.10;18.25;;;6.60;99.90;;;;;;5059256;28;20102;-58
2022/11/30 09:54:35;;;;;;;23.00;17.27;;;6.60;99.90;;;;;;5060203;28;20041;-60
2022/11/30 09:57:14;;;;;;;22.17;16.77;;;6.60;99.90;;;;;;5064642;28;20040;-59
2022/11/30 09:59:47;;;;;;;23.45;16.23;;;6.70;99.90;;;;;;5067114;28;20460;-58
2022/11/30 10:02:16;;;;;;;26.60;17.55;;;6.70;99.90;;;;;;5065622;28;20507;-60
2022/11/30 10:04:42;;;;;;;25.73;17.25;;;6.70;99.90;;;;;;5047203;28;20044;-58
2022/11/30 10:07:59;;;;;;;24.47;17.60;;;6.70;99.90;;;;;;5049213;28;20117;-58
2022/11/30 10:10:44;;;;;;;23.42;15.18;;;6.70;99.90;;;;;;4979949;28;20057;-59
2022/11/30 10:13:31;;;;;;;27.05;17.42;;;6.70;99.90;;;;;;5053342;28;20044;-58
2022/11/30 10:16:32;;;;;;;23.55;16.95;;;6.70;99.90;;;;;;5047374;28;20033;-60
2022/11/30 10:19:46;;;;;;;21.23;14.95;;;6.70;99.90;;;;;;5048270;28;20122;-58
2022/11/30 10:22:49;;;;;;;22.42;16.05;;;6.70;99.90;;;;;;5052246;28;20429;-61
2022/11/30 10:25:15;;;;;;;21.50;15.88;;;6.70;99.90;;;;;;5049958;28;20033;-60
2022/11/30 10:27:54;;;;;;;20.73;15.37;;;6.80;99.90;;;;;;5049860;28;20482;-59
2022/11/30 10:30:24;;;;;;;21.70;15.00;;;6.80;99.90;;;;;;5065889;28;20071;-60
2022/11/30 10:32:55;;;;;;;22.02;15.07;;;6.80;99.90;;;;;;5060358;28;20047;-58
2022/11/30 10:35:27;;;;;;;19.70;14.25;;;6.80;99.90;;;;;;5065301;28;20488;-61
2022/11/30 10:37:54;;;;;;;22.50;16.00;;;6.80;99.90;;;;;;5063175;28;20094;-59
2022/11/30 10:40:42;;;;;;;25.30;16.55;;;6.80;99.90;;;;;;5049336;28;20033;-60
2022/11/30 10:43:24;;;;;;;22.42;15.45;;;6.80;99.90;;;;;;5055227;28;20197;-58
2022/11/30 10:45:50;;;;;;;19.42;15.60;;;6.80;99.90;;;;;;5066860;28;20052;-59
2022/11/30 10:48:31;;;;;;;21.50;16.13;;;6.80;99.90;;;;;;5058302;28;20029;-59
2022/11/30 10:50:58;;;;;;;22.08;15.45;;;6.80;99.90;;;;;;5046741;28;20094;-61
2022/11/30 10:53:24;;;;;;;21.35;15.65;;;6.80;99.90;;;;;;5061496;28;20041;-59
2022/11/30 10:56:09;;;;;;;17.27;14.17;;;6.80;99.90;;;;;;5053804;28;20043;-60
2022/11/30 10:58:37;;;;;;;18.42;14.07;;;6.80;99.90;;;;;;5057228;28;20490;-60
2022/11/30 11:01:28;;;;;;;16.27;13.88;;;6.80;99.90;;;;;;5047725;28;20749;-60
2022/11/30 11:04:05;;;;;;;16.63;13.35;;;6.80;99.90;;;;;;5050354;28;20029;-61
2022/11/30 11:06:32;;;;;;;19.17;14.60;;;6.80;99.90;;;;;;5047253;28;20114;-60
2022/11/30 11:08:58;;;;;;;17.52;14.32;;;6.80;99.90;;;;;;5061353;28;20497;-61
2022/11/30 11:11:28;;;;;;;16.80;13.70;;;6.80;99.90;;;;;;5053178;28;20047;-60
2022/11/30 11:14:15;;;;;;;19.15;14.93;;;6.90;99.90;;;;;;5044526;28;20044;-60
2022/11/30 11:16:56;;;;;;;23.40;16.38;;;6.90;99.90;;;;;;5051113;28;20040;-60
2022/11/30 11:19:30;;;;;;;23.63;16.98;;;6.80;99.90;;;;;;5054989;28;20490;-59
2022/11/30 11:21:56;;;;;;;22.50;17.30;;;6.80;99.90;;;;;;5052262;28;20040;-61
2022/11/30 11:24:26;;;;;;;27.33;19.50;;;6.80;99.90;;;;;;5055345;28;20383;-61
2022/11/30 11:26:53;;;;;;;26.40;17.90;;;6.80;99.90;;;;;;5051531;28;20127;-59
2022/11/30 11:29:32;;;;;;;26.33;19.23;;;6.80;99.90;;;;;;5054507;28;20040;-60
2022/11/30 11:32:20;;;;;;;25.40;18.85;;;6.80;99.90;;;;;;5050340;28;20045;-60
2022/11/30 11:34:46;;;;;;;26.20;18.60;;;6.80;99.90;;;;;;5050663;28;20052;-60
2022/11/30 11:37:14;;;;;;;27.33;20.08;;;6.80;99.90;;;;;;5049867;28;20534;-60
2022/11/30 11:39:40;;;;;;;28.08;19.58;;;6.80;99.90;;;;;;5055332;28;20048;-61
2022/11/30 11:42:18;;;;;;;25.20;19.20;;;6.80;99.90;;;;;;5063296;28;20037;-61
2022/11/30 11:44:53;;;;;;;25.52;19.20;;;6.80;99.90;;;;;;5051645;28;20476;-61
2022/11/30 11:48:01;;;;;;;22.95;18.65;;;6.80;99.90;;;;;;5052461;28;20041;-61
2022/11/30 11:50:36;;;;;;;26.10;19.33;;;6.80;99.90;;;;;;5047086;28;20154;-60
2022/11/30 11:53:21;;;;;;;23.17;17.83;;;6.80;99.90;;;;;;5052086;28;20299;-60
2022/11/30 11:55:50;;;;;;;23.20;16.50;;;6.80;99.90;;;;;;5048688;28;20037;-61
2022/11/30 11:58:23;;;;;;;23.98;17.73;;;6.80;99.90;;;;;;5050673;28;20078;-59
2022/11/30 12:00:49;;;;;;;24.83;18.92;;;6.80;99.90;;;;;;5036666;28;20093;-59
2022/11/30 12:03:27;;;;;;;25.50;19.02;;;6.80;99.90;;;;;;5044970;28;20033;-59
2022/11/30 12:05:57;;;;;;;27.27;20.45;;;6.80;99.90;;;;;;5053927;28;20037;-60
2022/11/30 12:08:50;;;;;;;25.10;19.77;;;6.80;99.90;;;;;;5054463;28;20052;-60
2022/11/30 12:11:30;;;;;;;26.73;19.38;;;6.80;99.90;;;;;;5047149;28;20321;-61
2022/11/30 12:13:55;;;;;;;29.60;20.42;;;6.80;99.90;;;;;;5045156;28;20572;-59
2022/11/30 12:16:49;;;;;;;26.33;19.43;;;6.80;99.90;;;;;;5047593;28;20083;-60
2022/11/30 12:19:21;;;;;;;26.50;19.60;;;6.80;99.90;;;;;;5053306;28;20436;-59
2022/11/30 12:21:58;;;;;;;27.92;19.80;;;6.90;99.90;;;;;;5044565;28;20037;-59
2022/11/30 12:25:04;;;;;;;29.35;20.55;;;6.90;99.90;;;;;;5052522;28;20040;-60
2022/11/30 12:27:30;;;;;;;34.13;22.30;;;6.90;99.90;;;;;;5049417;28;20059;-59
2022/11/30 12:30:26;;;;;;;41.67;24.90;;;6.90;99.90;;;;;;5052942;28;20048;-58
2022/11/30 12:33:24;;;;;;;44.45;25.65;;;6.90;99.90;;;;;;5045523;28;20037;-61
2022/11/30 12:35:50;;;;;;;42.35;25.40;;;6.90;99.90;;;;;;5046684;28;20045;-61
2022/11/30 12:38:43;;;;;;;46.72;26.75;;;6.90;99.90;;;;;;5043666;28;20248;-61
2022/11/30 12:41:14;;;;;;;51.25;27.48;;;6.80;99.90;;;;;;5048402;28;20098;-60
2022/11/30 12:43:59;;;;;;;50.45;29.05;;;6.80;99.90;;;;;;5050027;28;20063;-59
2022/11/30 12:46:34;;;;;;;50.00;30.02;;;6.80;99.90;;;;;;5047263;28;20052;-61
2022/11/30 12:49:30;;;;;;;52.50;30.30;;;6.80;99.90;;;;;;5053052;28;20037;-58
2022/11/30 12:52:11;;;;;;;51.33;29.88;;;6.80;99.90;;;;;;5051328;28;20037;-61
2022/11/30 12:54:57;;;;;;;55.25;30.95;;;6.80;99.90;;;;;;5045483;28;20313;-59
2022/11/30 12:57:33;;;;;;;50.15;31.40;;;6.90;99.90;;;;;;5051376;28;20616;-58